createdAt,value
2018-09-14T00:00:30.238Z,27.14
2018-09-14T00:01:11.016Z,27.14
2018-09-14T00:01:51.773Z,27.1
2018-09-14T00:02:32.540Z,27.02
2018-09-14T00:03:13.297Z,27.03
2018-09-14T00:03:54.142Z,27.09
2018-09-14T00:04:35.003Z,27
2018-09-14T00:05:15.773Z,26.92
2018-09-14T00:05:56.508Z,26.94
2018-09-14T00:06:37.277Z,26.99
2018-09-14T00:07:18.107Z,27.03
2018-09-14T00:07:58.912Z,27.06
2018-09-14T00:08:39.691Z,27
2018-09-14T00:09:20.548Z,27.04
2018-09-14T00:10:01.398Z,27.04
2018-09-14T00:10:42.272Z,27.04
2018-09-14T00:11:23.120Z,27.09
2018-09-14T00:12:03.893Z,26.99
2018-09-14T00:12:44.722Z,27
2018-09-14T00:13:25.584Z,26.95
2018-09-14T00:14:06.373Z,27
2018-09-14T00:14:47.200Z,27.06
2018-09-14T00:15:27.967Z,26.99
2018-09-14T00:16:08.767Z,27.02
2018-09-14T00:16:49.621Z,26.95
2018-09-14T00:17:30.538Z,26.94
2018-09-14T00:18:11.332Z,27.04
2018-09-14T00:18:52.101Z,26.95
2018-09-14T00:19:32.849Z,26.94
2018-09-14T00:20:13.685Z,26.94
2018-09-14T00:20:54.455Z,26.99
2018-09-14T00:21:35.188Z,26.92
2018-09-14T00:22:15.923Z,26.89
2018-09-14T00:22:56.720Z,26.77
2018-09-14T00:23:37.535Z,26.91
2018-09-14T00:24:18.293Z,26.91
2018-09-14T00:24:59.108Z,26.89
2018-09-14T00:25:39.930Z,26.89
2018-09-14T00:26:20.836Z,26.92
2018-09-14T00:27:01.667Z,26.92
2018-09-14T00:27:42.439Z,26.97
2018-09-14T00:28:23.201Z,26.89
2018-09-14T00:29:03.985Z,26.8
2018-09-14T00:29:44.813Z,26.84
2018-09-14T00:30:25.644Z,26.82
2018-09-14T00:31:06.492Z,26.84
2018-09-14T00:31:47.218Z,26.89
2018-09-14T00:32:28.015Z,26.91
2018-09-14T00:33:08.833Z,26.87
2018-09-14T00:33:49.610Z,26.84
2018-09-14T00:34:30.351Z,26.87
2018-09-14T00:35:11.125Z,26.89
2018-09-14T00:35:51.896Z,26.8
2018-09-14T00:36:32.727Z,26.88
2018-09-14T00:37:13.563Z,26.84
2018-09-14T00:37:54.367Z,26.85
2018-09-14T00:38:35.241Z,26.8
2018-09-14T00:39:16.045Z,26.84
2018-09-14T00:39:56.887Z,26.81
2018-09-14T00:40:37.648Z,26.84
2018-09-14T00:41:18.467Z,26.81
2018-09-14T00:41:59.254Z,26.8
2018-09-14T00:42:40.058Z,26.84
2018-09-14T00:43:20.839Z,26.69
2018-09-14T00:44:01.634Z,26.82
2018-09-14T00:44:42.429Z,26.75
2018-09-14T00:45:23.238Z,26.72
2018-09-14T00:46:04.124Z,26.77
2018-09-14T00:46:44.992Z,26.75
2018-09-14T00:47:25.773Z,26.73
2018-09-14T00:48:06.542Z,26.8
2018-09-14T00:48:47.342Z,26.66
2018-09-14T00:49:28.122Z,26.67
2018-09-14T00:50:08.924Z,26.72
2018-09-14T00:50:49.713Z,26.73
2018-09-14T00:51:30.513Z,26.75
2018-09-14T00:52:11.361Z,26.7
2018-09-14T00:52:52.123Z,26.81
2018-09-14T00:53:32.955Z,26.77
2018-09-14T00:54:13.813Z,26.69
2018-09-14T00:54:54.602Z,26.8
2018-09-14T00:55:35.358Z,26.73
2018-09-14T00:56:16.122Z,26.67
2018-09-14T00:56:56.875Z,26.69
2018-09-14T00:57:37.706Z,26.69
2018-09-14T00:58:18.533Z,26.69
2018-09-14T00:58:59.328Z,26.67
2018-09-14T00:59:40.177Z,26.63
2018-09-14T01:00:20.980Z,26.65
2018-09-14T01:01:01.813Z,26.73
2018-09-14T01:01:42.639Z,26.65
2018-09-14T01:02:23.388Z,26.58
2018-09-14T01:03:04.156Z,26.63
2018-09-14T01:03:44.916Z,26.6
2018-09-14T01:04:25.701Z,26.63
2018-09-14T01:05:06.577Z,26.55
2018-09-14T01:05:47.379Z,26.58
2018-09-14T01:06:28.134Z,26.58
2018-09-14T01:07:08.860Z,26.51
2018-09-14T01:07:49.684Z,26.52
2018-09-14T01:08:30.446Z,26.48
2018-09-14T01:09:11.178Z,26.54
2018-09-14T01:09:52.010Z,26.62
2018-09-14T01:10:32.787Z,26.51
2018-09-14T01:11:13.613Z,26.55
2018-09-14T01:11:54.420Z,26.57
2018-09-14T01:12:35.228Z,26.52
2018-09-14T01:13:15.960Z,26.5
2018-09-14T01:13:56.682Z,26.55
2018-09-14T01:14:37.441Z,26.58
2018-09-14T01:15:18.260Z,26.51
2018-09-14T01:15:59.048Z,26.55
2018-09-14T01:16:39.806Z,26.55
2018-09-14T01:17:20.742Z,26.51
2018-09-14T01:18:01.465Z,26.58
2018-09-14T01:18:42.327Z,26.52
2018-09-14T01:19:23.098Z,26.51
2018-09-14T01:20:03.851Z,26.45
2018-09-14T01:20:44.584Z,26.52
2018-09-14T01:21:25.374Z,26.52
2018-09-14T01:22:06.163Z,26.51
2018-09-14T01:22:46.975Z,26.55
2018-09-14T01:23:27.787Z,26.54
2018-09-14T01:24:08.514Z,26.57
2018-09-14T01:24:49.360Z,26.58
2018-09-14T01:25:30.163Z,26.52
2018-09-14T01:26:10.955Z,26.6
2018-09-14T01:26:51.690Z,26.62
2018-09-14T01:27:32.400Z,26.51
2018-09-14T01:28:13.232Z,26.52
2018-09-14T01:28:54.004Z,26.51
2018-09-14T01:29:34.774Z,26.57
2018-09-14T01:30:15.546Z,26.52
2018-09-14T01:30:56.328Z,26.54
2018-09-14T01:31:37.553Z,26.62
2018-09-14T01:32:18.409Z,26.62
2018-09-14T01:32:59.179Z,26.58
2018-09-14T01:33:40.007Z,26.57
2018-09-14T01:34:20.797Z,26.6
2018-09-14T01:35:01.544Z,26.58
2018-09-14T01:35:42.315Z,26.54
2018-09-14T01:36:23.029Z,26.6
2018-09-14T01:37:03.890Z,26.62
2018-09-14T01:37:44.761Z,26.51
2018-09-14T01:38:25.542Z,26.57
2018-09-14T01:39:06.324Z,26.54
2018-09-14T01:39:47.039Z,26.55
2018-09-14T01:40:27.816Z,26.5
2018-09-14T01:41:08.616Z,26.55
2018-09-14T01:41:49.431Z,26.58
2018-09-14T01:42:30.195Z,26.6
2018-09-14T01:43:10.988Z,26.58
2018-09-14T01:43:51.777Z,26.58
2018-09-14T01:44:32.619Z,26.58
2018-09-14T01:45:13.454Z,26.62
2018-09-14T01:45:54.256Z,26.63
2018-09-14T01:46:35.026Z,26.57
2018-09-14T01:47:15.796Z,26.57
2018-09-14T01:47:56.557Z,26.62
2018-09-14T01:48:37.497Z,26.6
2018-09-14T01:49:18.292Z,26.57
2018-09-14T01:49:59.076Z,26.62
2018-09-14T01:50:39.804Z,26.62
2018-09-14T01:51:20.627Z,26.57
2018-09-14T01:52:01.480Z,26.62
2018-09-14T01:52:42.299Z,26.58
2018-09-14T01:53:23.084Z,26.65
2018-09-14T01:54:03.887Z,26.65
2018-09-14T01:54:44.746Z,26.63
2018-09-14T01:55:25.576Z,26.57
2018-09-14T01:56:06.398Z,26.6
2018-09-14T01:56:47.116Z,26.6
2018-09-14T01:57:27.851Z,26.58
2018-09-14T01:58:08.629Z,26.62
2018-09-14T01:58:49.487Z,26.58
2018-09-14T01:59:30.340Z,26.62
2018-09-14T02:00:11.114Z,26.57
2018-09-14T02:00:51.926Z,26.55
2018-09-14T02:01:32.769Z,26.63
2018-09-14T02:02:13.524Z,26.6
2018-09-14T02:02:54.344Z,26.66
2018-09-14T02:03:35.215Z,26.57
2018-09-14T02:04:15.915Z,26.55
2018-09-14T02:04:56.782Z,26.58
2018-09-14T02:05:37.640Z,26.63
2018-09-14T02:06:18.407Z,26.58
2018-09-14T02:06:59.235Z,26.69
2018-09-14T02:07:40.021Z,26.62
2018-09-14T02:08:20.810Z,26.67
2018-09-14T02:09:01.562Z,26.62
2018-09-14T02:09:42.336Z,26.65
2018-09-14T02:10:23.169Z,26.66
2018-09-14T02:11:03.959Z,26.55
2018-09-14T02:11:44.778Z,26.57
2018-09-14T02:12:25.514Z,26.57
2018-09-14T02:13:06.326Z,26.55
2018-09-14T02:13:47.095Z,26.67
2018-09-14T02:14:27.942Z,26.57
2018-09-14T02:15:08.741Z,26.66
2018-09-14T02:15:49.622Z,26.58
2018-09-14T02:16:30.415Z,26.55
2018-09-14T02:17:11.210Z,26.62
2018-09-14T02:17:52.062Z,26.62
2018-09-14T02:18:32.824Z,26.62
2018-09-14T02:19:13.592Z,26.58
2018-09-14T02:19:54.384Z,26.52
2018-09-14T02:20:35.194Z,26.66
2018-09-14T02:21:16.094Z,26.58
2018-09-14T02:21:56.891Z,26.48
2018-09-14T02:22:37.713Z,26.55
2018-09-14T02:23:18.480Z,26.51
2018-09-14T02:23:59.202Z,26.51
2018-09-14T02:24:40.003Z,26.52
2018-09-14T02:25:20.839Z,26.52
2018-09-14T02:26:01.604Z,26.51
2018-09-14T02:26:42.339Z,26.55
2018-09-14T02:27:23.103Z,26.57
2018-09-14T02:28:03.923Z,26.57
2018-09-14T02:28:44.771Z,26.51
2018-09-14T02:29:25.513Z,26.51
2018-09-14T02:30:06.276Z,26.57
2018-09-14T02:30:47.036Z,26.51
2018-09-14T02:31:27.813Z,26.48
2018-09-14T02:32:08.694Z,26.54
2018-09-14T02:32:49.554Z,26.51
2018-09-14T02:33:30.256Z,26.51
2018-09-14T02:34:11.006Z,26.48
2018-09-14T02:34:51.824Z,26.52
2018-09-14T02:35:32.664Z,26.5
2018-09-14T02:36:13.407Z,26.51
2018-09-14T02:36:54.176Z,26.52
2018-09-14T02:37:34.979Z,26.51
2018-09-14T02:38:15.831Z,26.48
2018-09-14T02:38:56.604Z,26.54
2018-09-14T02:39:37.356Z,26.4
2018-09-14T02:40:18.140Z,26.48
2018-09-14T02:40:58.989Z,26.5
2018-09-14T02:41:39.793Z,26.5
2018-09-14T02:42:20.582Z,26.54
2018-09-14T02:43:01.342Z,26.5
2018-09-14T02:43:42.107Z,26.51
2018-09-14T02:44:22.932Z,26.51
2018-09-14T02:45:03.723Z,26.57
2018-09-14T02:45:44.495Z,26.55
2018-09-14T02:46:25.274Z,26.52
2018-09-14T02:47:06.151Z,26.54
2018-09-14T02:47:46.972Z,26.5
2018-09-14T02:48:27.815Z,26.54
2018-09-14T02:49:08.572Z,26.51
2018-09-14T02:49:49.310Z,26.57
2018-09-14T02:50:30.082Z,26.52
2018-09-14T02:51:10.890Z,26.57
2018-09-14T02:51:51.681Z,26.55
2018-09-14T02:52:32.430Z,26.6
2018-09-14T02:53:13.205Z,26.54
2018-09-14T02:53:54.053Z,26.47
2018-09-14T02:54:34.857Z,26.52
2018-09-14T02:55:15.647Z,26.45
2018-09-14T02:55:56.413Z,26.48
2018-09-14T02:56:37.263Z,26.52
2018-09-14T02:57:18.065Z,26.44
2018-09-14T02:57:58.797Z,26.51
2018-09-14T02:58:39.521Z,26.51
2018-09-14T02:59:20.272Z,26.5
2018-09-14T03:00:01.178Z,26.48
2018-09-14T03:00:41.918Z,26.45
2018-09-14T03:01:22.667Z,26.52
2018-09-14T03:02:03.454Z,26.44
2018-09-14T03:02:44.255Z,26.5
2018-09-14T03:03:25.136Z,26.52
2018-09-14T03:04:05.901Z,26.58
2018-09-14T03:04:46.660Z,26.55
2018-09-14T03:05:27.439Z,26.51
2018-09-14T03:06:08.250Z,26.54
2018-09-14T03:06:49.101Z,26.45
2018-09-14T03:07:29.909Z,26.57
2018-09-14T03:08:10.704Z,26.51
2018-09-14T03:08:51.468Z,26.54
2018-09-14T03:09:32.280Z,26.58
2018-09-14T03:10:13.093Z,26.51
2018-09-14T03:10:53.833Z,26.57
2018-09-14T03:11:34.586Z,26.51
2018-09-14T03:12:15.379Z,26.6
2018-09-14T03:12:56.163Z,26.57
2018-09-14T03:13:36.942Z,26.55
2018-09-14T03:14:17.765Z,26.55
2018-09-14T03:14:58.590Z,26.55
2018-09-14T03:15:39.405Z,26.6
2018-09-14T03:16:20.286Z,26.54
2018-09-14T03:17:01.061Z,26.51
2018-09-14T03:17:41.824Z,26.55
2018-09-14T03:18:22.682Z,26.55
2018-09-14T03:19:03.515Z,26.51
2018-09-14T03:19:44.262Z,26.55
2018-09-14T03:20:25.029Z,26.52
2018-09-14T03:21:05.765Z,26.55
2018-09-14T03:21:46.634Z,26.51
2018-09-14T03:22:27.438Z,26.54
2018-09-14T03:23:08.262Z,26.55
2018-09-14T03:23:49.080Z,26.51
2018-09-14T03:24:29.824Z,26.5
2018-09-14T03:25:10.578Z,26.52
2018-09-14T03:25:51.357Z,26.55
2018-09-14T03:26:32.239Z,26.48
2018-09-14T03:27:13.064Z,26.5
2018-09-14T03:27:53.867Z,26.51
2018-09-14T03:28:34.684Z,26.5
2018-09-14T03:29:15.505Z,26.55
2018-09-14T03:29:56.325Z,26.57
2018-09-14T03:30:37.112Z,26.52
2018-09-14T03:31:17.889Z,26.5
2018-09-14T03:31:58.698Z,26.47
2018-09-14T03:32:40.206Z,26.4
2018-09-14T03:33:21.025Z,26.48
2018-09-14T03:34:01.975Z,26.44
2018-09-14T03:34:42.719Z,26.43
2018-09-14T03:35:23.529Z,26.37
2018-09-14T03:36:04.333Z,26.4
2018-09-14T03:36:45.122Z,26.45
2018-09-14T03:37:25.899Z,26.52
2018-09-14T03:38:06.664Z,26.48
2018-09-14T03:38:47.459Z,26.54
2018-09-14T03:39:28.324Z,26.48
2018-09-14T03:40:09.180Z,26.48
2018-09-14T03:40:49.956Z,26.44
2018-09-14T03:41:30.762Z,26.4
2018-09-14T03:42:11.497Z,26.52
2018-09-14T03:42:52.272Z,26.43
2018-09-14T03:43:33.133Z,26.48
2018-09-14T03:44:13.916Z,26.5
2018-09-14T03:44:54.670Z,26.44
2018-09-14T03:45:35.534Z,26.5
2018-09-14T03:46:16.301Z,26.44
2018-09-14T03:46:57.162Z,26.44
2018-09-14T03:47:37.946Z,26.48
2018-09-14T03:48:18.721Z,26.51
2018-09-14T03:48:59.616Z,26.43
2018-09-14T03:49:40.348Z,26.5
2018-09-14T03:50:21.101Z,26.45
2018-09-14T03:51:01.890Z,26.36
2018-09-14T03:51:42.653Z,26.43
2018-09-14T03:52:23.535Z,26.43
2018-09-14T03:53:04.310Z,26.32
2018-09-14T03:53:45.105Z,26.44
2018-09-14T03:54:25.914Z,26.44
2018-09-14T03:55:06.669Z,26.44
2018-09-14T03:55:47.525Z,26.43
2018-09-14T03:56:28.899Z,26.45
2018-09-14T03:57:09.076Z,26.5
2018-09-14T03:57:49.848Z,26.36
2018-09-14T03:58:30.638Z,26.39
2018-09-14T03:59:11.522Z,26.33
2018-09-14T03:59:52.375Z,26.29
2018-09-14T04:00:33.167Z,26.32
2018-09-14T04:01:13.900Z,26.29
2018-09-14T04:01:54.694Z,26.32
2018-09-14T04:02:35.488Z,26.25
2018-09-14T04:03:16.196Z,26.29
2018-09-14T04:03:56.963Z,26.29
2018-09-14T04:04:37.719Z,26.26
2018-09-14T04:05:18.543Z,26.3
2018-09-14T04:05:59.381Z,26.29
2018-09-14T04:06:40.163Z,26.28
2018-09-14T04:07:20.887Z,26.3
2018-09-14T04:08:01.648Z,26.29
2018-09-14T04:08:42.409Z,26.33
2018-09-14T04:09:23.265Z,26.28
2018-09-14T04:10:04.077Z,26.32
2018-09-14T04:10:44.956Z,26.35
2018-09-14T04:11:25.777Z,26.3
2018-09-14T04:12:06.550Z,26.29
2018-09-14T04:12:47.365Z,26.33
2018-09-14T04:13:28.129Z,26.3
2018-09-14T04:14:08.866Z,26.35
2018-09-14T04:14:49.619Z,26.3
2018-09-14T04:15:30.463Z,26.28
2018-09-14T04:16:11.293Z,26.35
2018-09-14T04:16:52.125Z,26.29
2018-09-14T04:17:32.960Z,26.35
2018-09-14T04:18:13.680Z,26.32
2018-09-14T04:18:54.483Z,26.36
2018-09-14T04:19:35.239Z,26.25
2018-09-14T04:20:16.069Z,26.32
2018-09-14T04:20:56.786Z,26.33
2018-09-14T04:21:37.550Z,26.3
2018-09-14T04:22:19.042Z,26.36
2018-09-14T04:22:59.988Z,26.3
2018-09-14T04:23:40.808Z,26.33
2018-09-14T04:24:21.698Z,26.28
2018-09-14T04:25:02.466Z,26.3
2018-09-14T04:25:43.390Z,26.35
2018-09-14T04:26:24.209Z,26.28
2018-09-14T04:27:04.961Z,26.25
2018-09-14T04:27:45.753Z,26.26
2018-09-14T04:28:26.526Z,26.28
2018-09-14T04:29:07.281Z,26.35
2018-09-14T04:29:48.459Z,26.29
2018-09-14T04:30:29.318Z,26.23
2018-09-14T04:31:10.489Z,26.26
2018-09-14T04:31:51.391Z,26.3
2018-09-14T04:32:32.331Z,26.18
2018-09-14T04:33:13.106Z,26.15
2018-09-14T04:33:53.897Z,26.09
2018-09-14T04:34:34.657Z,26.12
2018-09-14T04:35:15.526Z,26.09
2018-09-14T04:35:56.282Z,26.07
2018-09-14T04:36:37.019Z,26.07
2018-09-14T04:37:17.799Z,26.18
2018-09-14T04:37:58.679Z,26.07
2018-09-14T04:38:39.514Z,26.25
2018-09-14T04:39:20.214Z,26.12
2018-09-14T04:40:00.923Z,26.28
2018-09-14T04:40:41.701Z,26.12
2018-09-14T04:41:22.409Z,26.13
2018-09-14T04:42:03.212Z,26.23
2018-09-14T04:42:44.106Z,26.21
2018-09-14T04:43:24.898Z,26.29
2018-09-14T04:44:05.643Z,26.2
2018-09-14T04:44:46.352Z,26.2
2018-09-14T04:45:27.219Z,26.17
2018-09-14T04:46:08.002Z,26.17
2018-09-14T04:46:48.757Z,26.25
2018-09-14T04:47:29.483Z,26.25
2018-09-14T04:48:10.275Z,26.25
2018-09-14T04:48:51.054Z,26.25
2018-09-14T04:49:31.879Z,26.15
2018-09-14T04:50:12.672Z,26.25
2018-09-14T04:50:53.372Z,26.28
2018-09-14T04:51:34.392Z,26.25
2018-09-14T04:52:15.182Z,26.2
2018-09-14T04:52:56.036Z,26.23
2018-09-14T04:53:36.836Z,26.12
2018-09-14T04:54:17.801Z,26.13
2018-09-14T04:54:58.565Z,26.09
2018-09-14T04:55:39.367Z,26.15
2018-09-14T04:56:20.178Z,26.13
2018-09-14T04:57:00.962Z,26.06
2018-09-14T04:57:41.654Z,26.05
2018-09-14T04:58:22.502Z,26.07
2018-09-14T04:59:03.373Z,26.13
2018-09-14T04:59:44.142Z,26.05
2018-09-14T05:00:24.899Z,26.07
2018-09-14T05:01:05.610Z,26.02
2018-09-14T05:01:46.722Z,26.01
2018-09-14T05:02:28.028Z,26.06
2018-09-14T05:03:08.787Z,26.07
2018-09-14T05:03:49.779Z,26.05
2018-09-14T05:04:30.621Z,26.12
2018-09-14T05:05:11.435Z,26.07
2018-09-14T05:05:52.225Z,26.06
2018-09-14T05:06:32.997Z,26.06
2018-09-14T05:07:13.696Z,26.05
2018-09-14T05:07:54.581Z,26.09
2018-09-14T05:08:35.381Z,26.1
2018-09-14T05:09:16.200Z,26.05
2018-09-14T05:09:57.227Z,26.09
2018-09-14T05:10:38.441Z,26.17
2018-09-14T05:11:19.272Z,26.07
2018-09-14T05:12:00.090Z,26.02
2018-09-14T05:12:40.805Z,26.05
2018-09-14T05:13:21.568Z,25.97
2018-09-14T05:14:02.515Z,25.97
2018-09-14T05:14:43.641Z,25.95
2018-09-14T05:15:24.525Z,25.87
2018-09-14T05:16:05.281Z,25.87
2018-09-14T05:16:46.089Z,26.02
2018-09-14T05:17:26.873Z,26.06
2018-09-14T05:18:07.676Z,25.88
2018-09-14T05:18:48.627Z,26.02
2018-09-14T05:19:29.624Z,25.98
2018-09-14T05:20:10.485Z,25.97
2018-09-14T05:20:51.273Z,26.02
2018-09-14T05:21:32.066Z,26.06
2018-09-14T05:22:12.805Z,26.05
2018-09-14T05:22:53.574Z,25.95
2018-09-14T05:23:34.399Z,25.87
2018-09-14T05:24:15.340Z,25.9
2018-09-14T05:24:56.152Z,25.88
2018-09-14T05:25:36.968Z,25.88
2018-09-14T05:26:17.702Z,25.85
2018-09-14T05:28:07.954Z,25.94
2018-09-14T05:28:48.726Z,25.88
2018-09-14T05:29:29.459Z,25.92
2018-09-14T05:30:10.230Z,25.91
2018-09-14T05:30:51.330Z,25.87
2018-09-14T05:31:31.982Z,25.88
2018-09-14T05:32:12.831Z,25.91
2018-09-14T05:32:53.721Z,25.94
2018-09-14T05:33:34.446Z,25.85
2018-09-14T05:34:15.311Z,25.76
2018-09-14T05:34:56.608Z,25.76
2018-09-14T05:35:37.221Z,25.85
2018-09-14T05:36:18.844Z,25.9
2018-09-14T05:36:59.648Z,25.83
2018-09-14T05:37:40.615Z,25.79
2018-09-14T05:38:21.459Z,25.77
2018-09-14T05:39:02.390Z,25.76
2018-09-14T05:39:43.125Z,25.77
2018-09-14T05:40:23.952Z,25.88
2018-09-14T05:41:05.291Z,25.87
2018-09-14T05:41:46.451Z,25.79
2018-09-14T05:42:27.209Z,25.75
2018-09-14T05:43:07.992Z,25.72
2018-09-14T05:43:48.759Z,25.76
2018-09-14T05:44:29.554Z,25.67
2018-09-14T05:45:10.447Z,25.65
2018-09-14T05:45:51.625Z,25.65
2018-09-14T05:46:32.761Z,25.73
2018-09-14T05:47:13.665Z,25.75
2018-09-14T05:47:54.564Z,25.72
2018-09-14T05:48:35.288Z,25.76
2018-09-14T05:49:16.270Z,25.73
2018-09-14T05:49:57.038Z,25.69
2018-09-14T05:50:37.874Z,25.73
2018-09-14T05:51:18.733Z,25.75
2018-09-14T05:51:59.556Z,25.72
2018-09-14T05:52:40.500Z,25.76
2018-09-14T05:53:21.212Z,25.82
2018-09-14T05:54:02.318Z,25.82
2018-09-14T05:54:43.350Z,25.85
2018-09-14T05:55:24.318Z,25.87
2018-09-14T05:56:04.982Z,25.82
2018-09-14T05:56:45.847Z,25.83
2018-09-14T05:57:26.654Z,25.87
2018-09-14T05:58:07.494Z,25.85
2018-09-14T05:58:48.344Z,25.82
2018-09-14T05:59:29.136Z,25.85
2018-09-14T06:00:09.966Z,25.8
2018-09-14T06:00:50.685Z,25.76
2018-09-14T06:01:31.452Z,25.88
2018-09-14T06:02:12.312Z,25.85
2018-09-14T06:02:53.030Z,25.91
2018-09-14T06:03:33.773Z,25.88
2018-09-14T06:04:14.674Z,25.85
2018-09-14T06:04:55.565Z,25.92
2018-09-14T06:05:36.406Z,25.87
2018-09-14T06:06:17.188Z,25.88
2018-09-14T06:06:58.064Z,25.85
2018-09-14T06:07:39.058Z,25.91
2018-09-14T06:08:19.949Z,25.9
2018-09-14T06:09:00.994Z,25.87
2018-09-14T06:09:41.743Z,25.87
2018-09-14T06:10:22.558Z,25.9
2018-09-14T06:11:03.420Z,25.9
2018-09-14T06:11:44.206Z,25.83
2018-09-14T06:12:24.975Z,25.87
2018-09-14T06:13:05.856Z,25.87
2018-09-14T06:13:46.631Z,25.9
2018-09-14T06:14:27.459Z,25.91
2018-09-14T06:15:08.187Z,25.92
2018-09-14T06:15:48.901Z,25.85
2018-09-14T06:16:29.716Z,25.87
2018-09-14T06:17:10.719Z,25.85
2018-09-14T06:17:51.392Z,25.9
2018-09-14T06:18:32.279Z,25.88
2018-09-14T06:19:13.029Z,25.92
2018-09-14T06:19:53.780Z,25.9
2018-09-14T06:20:34.574Z,25.88
2018-09-14T06:21:15.476Z,25.9
2018-09-14T06:21:56.203Z,25.9
2018-09-14T06:22:36.986Z,25.9
2018-09-14T06:23:17.692Z,25.9
2018-09-14T06:23:58.565Z,25.9
2018-09-14T06:24:39.318Z,25.97
2018-09-14T06:25:20.029Z,26.01
2018-09-14T06:26:00.811Z,26.05
2018-09-14T06:26:41.635Z,26.05
2018-09-14T06:27:22.462Z,25.98
2018-09-14T06:28:03.202Z,26.01
2018-09-14T06:28:43.930Z,26.05
2018-09-14T06:29:24.705Z,25.99
2018-09-14T06:30:05.528Z,26.02
2018-09-14T06:30:46.312Z,26.01
2018-09-14T06:31:27.080Z,26.07
2018-09-14T06:32:07.869Z,26.07
2018-09-14T06:32:48.741Z,26.06
2018-09-14T06:33:29.934Z,26.09
2018-09-14T06:34:10.789Z,26.1
2018-09-14T06:34:51.518Z,26.17
2018-09-14T06:35:32.253Z,26.23
2018-09-14T06:36:12.972Z,26.28
2018-09-14T06:36:53.768Z,26.37
2018-09-14T06:37:34.898Z,26.6
2018-09-14T06:38:15.717Z,26.89
2018-09-14T06:38:56.465Z,27.27
2018-09-14T06:39:37.314Z,27.36
2018-09-14T06:40:18.071Z,27.22
2018-09-14T06:40:58.896Z,27.04
2018-09-14T06:41:39.625Z,27.02
2018-09-14T06:42:20.417Z,27.04
2018-09-14T06:43:01.188Z,27.07
2018-09-14T06:43:41.986Z,27.19
2018-09-14T06:44:22.722Z,27.54
2018-09-14T06:45:03.553Z,27.82
2018-09-14T06:45:44.421Z,28.11
2018-09-14T06:46:25.156Z,28.31
2018-09-14T06:47:05.839Z,28.31
2018-09-14T06:47:46.935Z,28.07
2018-09-14T06:48:27.968Z,27.9
2018-09-14T06:49:08.721Z,27.88
2018-09-14T06:49:49.463Z,27.87
2018-09-14T06:50:30.185Z,27.9
2018-09-14T06:51:10.926Z,27.65
2018-09-14T06:51:51.701Z,27.51
2018-09-14T06:52:32.607Z,27.37
2018-09-14T06:53:13.566Z,27.5
2018-09-14T06:53:54.301Z,27.66
2018-09-14T06:54:35.056Z,28.11
2018-09-14T06:55:15.878Z,28.61
2018-09-14T06:55:56.700Z,29.19
2018-09-14T06:56:37.441Z,29.76
2018-09-14T06:57:18.129Z,30.22
2018-09-14T06:57:58.870Z,30.32
2018-09-14T06:58:39.733Z,30.61
2018-09-14T06:59:20.667Z,30.62
2018-09-14T07:00:01.512Z,30.43
2018-09-14T07:00:42.211Z,30.22
2018-09-14T07:01:22.984Z,30.01
2018-09-14T07:02:03.723Z,29.95
2018-09-14T07:02:44.439Z,29.92
2018-09-14T07:03:25.326Z,29.76
2018-09-14T07:04:06.057Z,29.78
2018-09-14T07:04:46.877Z,29.79
2018-09-14T07:05:27.671Z,29.82
2018-09-14T07:06:08.452Z,29.65
2018-09-14T07:06:49.303Z,29.71
2018-09-14T07:07:30.108Z,29.55
2018-09-14T07:08:10.906Z,29.57
2018-09-14T07:08:51.650Z,29.61
2018-09-14T07:09:32.453Z,29.52
2018-09-14T07:10:13.293Z,29.43
2018-09-14T07:10:54.096Z,29.39
2018-09-14T07:11:34.854Z,29.27
2018-09-14T07:12:15.590Z,29.24
2018-09-14T07:12:56.355Z,29.19
2018-09-14T07:13:37.155Z,29.09
2018-09-14T07:14:17.892Z,29.04
2018-09-14T07:14:58.661Z,28.96
2018-09-14T07:15:39.411Z,28.86
2018-09-14T07:16:20.246Z,28.85
2018-09-14T07:17:00.988Z,28.8
2018-09-14T07:17:41.718Z,28.8
2018-09-14T07:18:22.496Z,28.71
2018-09-14T07:19:03.294Z,28.71
2018-09-14T07:19:44.165Z,28.61
2018-09-14T07:20:24.884Z,28.56
2018-09-14T07:21:05.698Z,28.58
2018-09-14T07:21:46.564Z,28.59
2018-09-14T07:22:27.268Z,28.52
2018-09-14T07:23:07.983Z,28.4
2018-09-14T07:23:48.732Z,28.49
2018-09-14T07:24:29.535Z,28.4
2018-09-14T07:25:10.386Z,28.43
2018-09-14T07:25:51.242Z,28.43
2018-09-14T07:26:32.036Z,28.29
2018-09-14T07:27:12.847Z,28.29
2018-09-14T07:27:53.565Z,28.33
2018-09-14T07:28:34.275Z,28.3
2018-09-14T07:29:15.172Z,28.27
2018-09-14T07:29:55.909Z,28.31
2018-09-14T07:30:36.603Z,28.19
2018-09-14T07:31:17.492Z,28.15
2018-09-14T07:31:58.321Z,28.12
2018-09-14T07:32:39.117Z,28.09
2018-09-14T07:33:19.845Z,28.12
2018-09-14T07:34:00.567Z,28.11
2018-09-14T07:34:41.327Z,28.11
2018-09-14T07:35:22.182Z,28.03
2018-09-14T07:36:02.987Z,28.09
2018-09-14T07:36:43.929Z,28.02
2018-09-14T07:37:24.820Z,28.12
2018-09-14T07:38:05.551Z,28.02
2018-09-14T07:38:46.330Z,27.94
2018-09-14T07:39:27.136Z,27.96
2018-09-14T07:40:07.864Z,27.94
2018-09-14T07:40:48.632Z,27.96
2018-09-14T07:41:29.354Z,27.97
2018-09-14T07:42:10.152Z,27.9
2018-09-14T07:42:51.027Z,27.87
2018-09-14T07:43:31.790Z,27.93
2018-09-14T07:44:12.515Z,27.85
2018-09-14T07:44:53.253Z,27.93
2018-09-14T07:45:33.951Z,27.85
2018-09-14T07:46:14.750Z,27.96
2018-09-14T07:46:55.512Z,27.85
2018-09-14T07:47:36.217Z,27.87
2018-09-14T07:48:17.054Z,27.93
2018-09-14T07:48:57.816Z,27.9
2018-09-14T07:49:38.661Z,27.82
2018-09-14T07:50:19.409Z,27.82
2018-09-14T07:51:00.135Z,27.81
2018-09-14T07:51:40.928Z,27.82
2018-09-14T07:52:21.679Z,27.84
2018-09-14T07:53:02.414Z,27.84
2018-09-14T07:53:43.144Z,27.69
2018-09-14T07:54:23.863Z,27.78
2018-09-14T07:55:04.682Z,27.85
2018-09-14T07:55:45.447Z,27.69
2018-09-14T07:56:26.186Z,27.81
2018-09-14T07:57:07.023Z,27.82
2018-09-14T07:57:47.791Z,27.78
2018-09-14T07:58:28.591Z,27.85
2018-09-14T07:59:09.346Z,27.82
2018-09-14T07:59:50.051Z,27.75
2018-09-14T08:00:30.741Z,27.78
2018-09-14T08:01:11.643Z,27.87
2018-09-14T08:01:52.394Z,27.85
2018-09-14T08:02:33.221Z,27.85
2018-09-14T08:03:14.015Z,27.82
2018-09-14T08:03:54.719Z,27.93
2018-09-14T08:04:35.539Z,27.82
2018-09-14T08:05:16.337Z,27.9
2018-09-14T08:05:57.082Z,27.96
2018-09-14T08:06:37.789Z,27.88
2018-09-14T08:07:18.497Z,27.9
2018-09-14T08:07:59.282Z,27.84
2018-09-14T08:08:40.022Z,27.79
2018-09-14T08:09:20.801Z,27.79
2018-09-14T08:10:01.610Z,27.88
2018-09-14T08:10:42.386Z,27.87
2018-09-14T08:11:23.114Z,27.93
2018-09-14T08:12:03.931Z,27.93
2018-09-14T08:12:44.672Z,27.92
2018-09-14T08:13:25.434Z,27.96
2018-09-14T08:14:06.215Z,27.92
2018-09-14T08:14:47.115Z,27.9
2018-09-14T08:15:27.963Z,27.92
2018-09-14T08:16:08.764Z,27.88
2018-09-14T08:16:49.509Z,27.92
2018-09-14T08:17:30.287Z,27.81
2018-09-14T08:18:11.009Z,27.92
2018-09-14T08:18:51.816Z,27.99
2018-09-14T08:19:32.609Z,27.81
2018-09-14T08:20:13.477Z,27.99
2018-09-14T08:20:54.235Z,27.85
2018-09-14T08:21:35.010Z,27.82
2018-09-14T08:22:15.795Z,27.79
2018-09-14T08:22:56.545Z,27.84
2018-09-14T08:23:37.304Z,27.87
2018-09-14T08:24:18.020Z,27.9
2018-09-14T08:24:58.776Z,27.79
2018-09-14T08:25:39.582Z,27.81
2018-09-14T08:26:20.346Z,27.88
2018-09-14T08:27:01.138Z,27.69
2018-09-14T08:27:41.880Z,27.81
2018-09-14T08:28:22.713Z,27.81
2018-09-14T08:29:03.510Z,27.81
2018-09-14T08:29:44.256Z,27.92
2018-09-14T08:30:24.964Z,27.87
2018-09-14T08:31:05.841Z,27.82
2018-09-14T08:31:46.571Z,27.84
2018-09-14T08:32:27.359Z,27.82
2018-09-14T08:33:08.043Z,27.74
2018-09-14T08:33:48.805Z,27.77
2018-09-14T08:34:29.610Z,27.72
2018-09-14T08:35:10.453Z,27.82
2018-09-14T08:35:51.255Z,27.69
2018-09-14T08:36:31.974Z,27.62
2018-09-14T08:37:12.762Z,27.7
2018-09-14T08:37:53.541Z,27.65
2018-09-14T08:38:34.418Z,27.69
2018-09-14T08:39:15.152Z,27.74
2018-09-14T08:39:55.925Z,27.7
2018-09-14T08:40:36.741Z,27.62
2018-09-14T08:41:17.519Z,27.72
2018-09-14T08:41:58.369Z,27.67
2018-09-14T08:42:39.127Z,27.69
2018-09-14T08:43:19.883Z,27.72
2018-09-14T08:44:00.745Z,27.74
2018-09-14T08:44:41.508Z,27.74
2018-09-14T08:45:22.218Z,27.69
2018-09-14T08:46:02.987Z,27.62
2018-09-14T08:46:43.728Z,27.74
2018-09-14T08:47:24.554Z,27.63
2018-09-14T08:48:05.425Z,27.7
2018-09-14T08:48:46.079Z,27.65